createdAt,value
2023-04-04T00:00:42.539Z,101889.09
2023-04-04T00:03:10.462Z,101892.63
2023-04-04T00:05:38.411Z,101881.41
2023-04-04T00:08:06.630Z,101894.47
2023-04-04T00:10:35.728Z,101886.63
2023-04-04T00:13:05.522Z,101887.63
2023-04-04T00:15:34.589Z,101883.56
2023-04-04T00:18:02.562Z,101887.09
2023-04-04T00:20:30.557Z,101880.53
2023-04-04T00:22:58.905Z,101891.47
2023-04-04T00:25:26.627Z,101891.84
2023-04-04T00:27:56.150Z,101890.41
2023-04-04T00:30:23.885Z,101896.13
2023-04-04T00:32:51.798Z,101890.06
2023-04-04T00:35:19.812Z,101889.22
2023-04-04T00:37:47.556Z,101889.75
2023-04-04T00:40:15.718Z,101886.19
2023-04-04T00:42:43.503Z,101893.66
2023-04-04T00:45:12.947Z,101888.72
2023-04-04T00:47:44.394Z,101896.31
2023-04-04T00:50:12.664Z,101889.81
2023-04-04T00:52:41.042Z,101897.59
2023-04-04T00:55:09.997Z,101892.84
2023-04-04T00:57:38.005Z,101892.09
2023-04-04T01:00:07.868Z,101889.94
2023-04-04T01:02:37.225Z,101887.41
2023-04-04T01:05:05.514Z,101894.63
2023-04-04T01:07:34.784Z,101890.22
2023-04-04T01:10:05.175Z,101888.97
2023-04-04T01:12:33.177Z,101895.75
2023-04-04T01:15:01.104Z,101895.50
2023-04-04T01:17:29.518Z,101898.06
2023-04-04T01:20:04.348Z,101899.41
2023-04-04T01:22:33.338Z,101896.13
2023-04-04T01:25:02.848Z,101900.38
2023-04-04T01:27:31.969Z,101896.94
2023-04-04T01:29:59.821Z,101888.56
2023-04-04T01:32:33.970Z,101890.66
2023-04-04T01:35:12.857Z,101894.16
2023-04-04T01:37:47.852Z,101888.19
2023-04-04T01:40:19.512Z,101883.44
2023-04-04T01:42:49.620Z,101889.09
2023-04-04T01:45:17.494Z,101890.94
2023-04-04T01:47:45.256Z,101886.94
2023-04-04T01:50:13.085Z,101892.94
2023-04-04T01:52:40.990Z,101890.09
2023-04-04T01:55:09.446Z,101890.50
2023-04-04T01:57:37.249Z,101886.34
2023-04-04T02:00:07.756Z,101889.81
2023-04-04T02:02:35.708Z,101884.47
2023-04-04T02:05:04.198Z,101886.59
2023-04-04T02:07:31.990Z,101889.66
2023-04-04T02:09:59.712Z,101892.41
2023-04-04T02:12:27.405Z,101884.66
2023-04-04T02:14:55.108Z,101892.94
2023-04-04T02:17:24.288Z,101885.59
2023-04-04T02:19:52.916Z,101886.00
2023-04-04T02:22:20.651Z,101880.44
2023-04-04T02:24:48.392Z,101881.31
2023-04-04T02:27:16.188Z,101872.75
2023-04-04T02:29:44.502Z,101872.22
2023-04-04T02:32:12.238Z,101871.88
2023-04-04T02:34:41.359Z,101869.25
2023-04-04T02:37:09.062Z,101873.34
2023-04-04T02:39:36.758Z,101874.66
2023-04-04T02:42:04.579Z,101872.66
2023-04-04T02:44:32.272Z,101882.97
2023-04-04T02:46:59.977Z,101882.31
2023-04-04T02:49:28.700Z,101891.84
2023-04-04T02:51:58.514Z,101882.03
2023-04-04T02:54:26.233Z,101883.16
2023-04-04T02:56:54.001Z,101893.91
2023-04-04T02:59:21.809Z,101888.03
2023-04-04T03:01:49.617Z,101882.31
2023-04-04T03:04:19.441Z,101888.28
2023-04-04T03:06:48.257Z,101883.41
2023-04-04T03:09:17.394Z,101882.50
2023-04-04T03:11:45.321Z,101889.91
2023-04-04T03:14:13.189Z,101889.91
2023-04-04T03:16:41.065Z,101884.97
2023-04-04T03:19:08.820Z,101894.78
2023-04-04T03:21:36.792Z,101891.56
2023-04-04T03:24:04.892Z,101893.75
2023-04-04T03:26:34.027Z,101888.94
2023-04-04T03:29:04.310Z,101889.78
2023-04-04T03:31:32.162Z,101885.06
2023-04-04T03:34:00.926Z,101888.38
2023-04-04T03:36:28.670Z,101893.13
2023-04-04T03:38:56.406Z,101890.50
2023-04-04T03:41:24.153Z,101891.63
2023-04-04T03:43:53.298Z,101895.22
2023-04-04T03:46:21.436Z,101894.41
2023-04-04T03:48:49.346Z,101897.03
2023-04-04T03:51:24.236Z,101893.41
2023-04-04T03:53:52.041Z,101890.09
2023-04-04T03:56:19.979Z,101884.44
2023-04-04T03:58:47.806Z,101882.44
2023-04-04T04:01:17.079Z,101886.59
2023-04-04T04:03:44.792Z,101892.81
2023-04-04T04:06:12.773Z,101896.44
2023-04-04T04:08:40.913Z,101900.09
2023-04-04T04:11:08.904Z,101904.88
2023-04-04T04:13:37.769Z,101902.56
2023-04-04T04:16:05.874Z,101907.56
2023-04-04T04:18:35.088Z,101906.53
2023-04-04T04:21:04.078Z,101908.03
2023-04-04T04:23:32.008Z,101912.06
2023-04-04T04:25:59.819Z,101917.50
2023-04-04T04:28:33.612Z,101913.44
2023-04-04T04:31:06.162Z,101916.78
2023-04-04T04:33:35.315Z,101911.22
2023-04-04T04:36:03.333Z,101915.56
2023-04-04T04:38:31.257Z,101915.41
2023-04-04T04:40:59.037Z,101916.03
2023-04-04T04:43:27.644Z,101913.34
2023-04-04T04:45:55.709Z,101912.75
2023-04-04T04:48:23.498Z,101917.91
2023-04-04T04:50:52.664Z,101916.03
2023-04-04T04:53:20.507Z,101920.88
2023-04-04T04:55:48.729Z,101918.94
2023-04-04T04:58:17.545Z,101916.38
2023-04-04T05:00:45.837Z,101920.34
2023-04-04T05:03:13.711Z,101920.34
2023-04-04T05:05:41.553Z,101924.38
2023-04-04T05:08:10.660Z,101918.28
2023-04-04T05:11:33.644Z,101920.66
2023-04-04T05:14:01.899Z,101919.09
2023-04-04T05:16:29.966Z,101919.34
2023-04-04T05:18:57.946Z,101920.09
2023-04-04T05:21:25.686Z,101927.59
2023-04-04T05:23:55.079Z,101923.63
2023-04-04T05:26:22.854Z,101930.22
2023-04-04T05:28:50.539Z,101925.66
2023-04-04T05:31:18.732Z,101936.72
2023-04-04T05:33:46.497Z,101940.31
2023-04-04T05:36:14.499Z,101935.72
2023-04-04T05:38:42.547Z,101942.91
2023-04-04T05:41:11.891Z,101944.47
2023-04-04T05:43:39.612Z,101949.22
2023-04-04T05:46:07.489Z,101949.75
2023-04-04T05:48:35.187Z,101945.53
2023-04-04T05:51:02.913Z,101951.28
2023-04-04T05:53:30.837Z,101954.56
2023-04-04T05:55:59.305Z,101964.38
2023-04-04T05:58:28.428Z,101961.16
2023-04-04T06:00:56.673Z,101976.66
2023-04-04T06:03:24.540Z,101974.69
2023-04-04T06:05:53.668Z,101981.81
2023-04-04T06:08:21.531Z,101990.19
2023-04-04T06:10:49.232Z,101989.38
2023-04-04T06:13:17.089Z,102000.53
2023-04-04T06:15:46.289Z,102006.28
2023-04-04T06:18:14.150Z,102005.91
2023-04-04T06:20:42.151Z,102005.81
2023-04-04T06:23:10.129Z,102007.19
2023-04-04T06:25:38.055Z,102008.59
2023-04-04T06:28:06.373Z,102013.94
2023-04-04T06:30:37.529Z,102013.53
2023-04-04T06:33:07.452Z,102015.88
2023-04-04T06:35:35.426Z,102019.16
2023-04-04T06:38:04.204Z,102021.03
2023-04-04T06:40:32.057Z,102021.41
2023-04-04T06:42:59.980Z,102021.91
2023-04-04T06:45:28.491Z,102029.31
2023-04-04T06:47:56.461Z,102025.00
2023-04-04T06:50:25.643Z,102026.97
2023-04-04T06:52:53.662Z,102025.28
2023-04-04T06:55:22.625Z,102027.38
2023-04-04T06:57:50.326Z,102028.31
2023-04-04T07:00:18.690Z,102024.69
2023-04-04T07:02:46.901Z,102031.59
2023-04-04T07:05:17.814Z,102022.81
2023-04-04T07:07:47.585Z,102026.47
2023-04-04T07:10:15.506Z,102013.34
2023-04-04T07:12:43.511Z,102016.34
2023-04-04T07:15:12.629Z,102024.66
2023-04-04T07:17:41.127Z,102017.22
2023-04-04T07:20:10.066Z,102021.47
2023-04-04T07:22:38.671Z,102017.84
2023-04-04T07:25:09.547Z,102021.34
2023-04-04T07:27:37.504Z,102023.50
2023-04-04T07:30:05.735Z,102016.22
2023-04-04T07:32:33.484Z,102014.78
2023-04-04T07:35:01.236Z,102016.31
2023-04-04T07:37:28.971Z,102012.03
2023-04-04T07:39:56.894Z,102008.66
2023-04-04T07:42:26.583Z,102010.38
2023-04-04T07:44:54.452Z,101998.72
2023-04-04T07:47:22.522Z,101999.22
2023-04-04T07:49:50.239Z,102004.47
2023-04-04T07:52:17.964Z,102016.16
2023-04-04T07:54:47.222Z,102004.75
2023-04-04T07:57:14.917Z,102017.63
2023-04-04T07:59:44.660Z,102010.75
2023-04-04T08:02:12.415Z,102016.69
2023-04-04T08:04:40.176Z,102008.81
2023-04-04T08:07:07.888Z,102011.44
2023-04-04T08:09:36.460Z,102021.28
2023-04-04T08:12:05.599Z,102018.88
2023-04-04T08:14:33.793Z,102017.41
2023-04-04T08:17:03.071Z,102024.50
2023-04-04T08:19:30.790Z,102027.78
2023-04-04T08:21:58.551Z,102018.50
2023-04-04T08:24:27.752Z,102019.06
2023-04-04T08:27:04.475Z,102026.00
2023-04-04T08:29:34.353Z,102027.13
2023-04-04T08:32:03.547Z,102028.25
2023-04-04T08:34:31.253Z,102024.44
2023-04-04T08:36:59.942Z,102029.88
2023-04-04T08:39:28.147Z,102024.66
2023-04-04T08:42:03.149Z,102036.00
2023-04-04T08:44:31.944Z,102040.25
2023-04-04T08:47:01.125Z,102046.53
2023-04-04T08:49:33.828Z,102043.97
2023-04-04T08:52:03.863Z,102046.56
2023-04-04T08:54:32.907Z,102045.09
2023-04-04T08:57:00.880Z,102042.56
2023-04-04T08:59:28.857Z,102038.38
2023-04-04T09:02:02.415Z,102036.50
2023-04-04T09:04:32.369Z,102038.34
2023-04-04T09:07:03.491Z,102032.94
2023-04-04T09:09:32.878Z,102033.84
2023-04-04T09:12:02.471Z,102034.22
2023-04-04T09:14:31.880Z,102038.50
2023-04-04T09:16:59.695Z,102031.41
2023-04-04T09:19:27.631Z,102044.88
2023-04-04T09:21:56.826Z,102039.47
2023-04-04T09:24:24.565Z,102046.66
2023-04-04T09:26:54.228Z,102050.13
2023-04-04T09:29:22.784Z,102042.91
2023-04-04T09:31:51.664Z,102043.56
2023-04-04T09:34:21.225Z,102044.59
2023-04-04T09:36:49.291Z,102044.41
2023-04-04T09:39:20.867Z,102044.31
2023-04-04T09:41:49.337Z,102053.50
2023-04-04T09:44:18.182Z,102045.78
2023-04-04T09:46:46.325Z,102038.53
2023-04-04T09:49:21.357Z,102040.31
2023-04-04T09:51:54.901Z,102037.19
2023-04-04T09:54:29.736Z,102044.31
2023-04-04T09:56:58.209Z,102043.22
2023-04-04T09:59:26.087Z,102034.19
2023-04-04T10:01:55.997Z,102039.53
2023-04-04T10:04:26.973Z,102044.22
2023-04-04T10:06:55.794Z,102037.22
2023-04-04T10:09:24.960Z,102041.44
2023-04-04T10:12:08.689Z,102034.06
2023-04-04T10:14:36.488Z,102044.22
2023-04-04T10:17:10.467Z,102042.28
2023-04-04T10:19:39.475Z,102033.94
2023-04-04T10:22:07.421Z,102039.47
2023-04-04T10:24:36.736Z,102032.38
2023-04-04T10:27:04.637Z,102027.72
2023-04-04T10:29:32.448Z,102032.03
2023-04-04T10:32:06.228Z,102025.19
2023-04-04T10:34:40.340Z,102032.09
2023-04-04T10:37:13.641Z,102022.31
2023-04-04T10:39:46.011Z,102024.06
2023-04-04T10:42:16.733Z,102012.78
2023-04-04T10:44:46.911Z,102018.16
2023-04-04T10:47:18.100Z,102019.19
2023-04-04T10:49:47.091Z,102019.00
2023-04-04T10:52:16.890Z,102014.88
2023-04-04T10:54:46.526Z,102009.81
2023-04-04T10:57:15.341Z,102015.59
2023-04-04T10:59:59.118Z,102013.09
2023-04-04T11:02:45.481Z,102012.25
2023-04-04T11:05:13.861Z,102003.84
2023-04-04T11:07:43.162Z,102000.66
2023-04-04T11:10:18.151Z,102001.50
2023-04-04T11:12:47.618Z,102003.38
2023-04-04T11:15:16.425Z,101994.72
2023-04-04T11:17:52.932Z,101995.72
2023-04-04T11:20:22.513Z,101990.63
2023-04-04T11:22:51.566Z,101993.84
2023-04-04T11:25:50.626Z,101992.13
2023-04-04T11:28:29.146Z,101996.03
2023-04-04T11:31:29.362Z,101988.81
2023-04-04T11:34:03.817Z,101984.69
2023-04-04T11:36:51.986Z,101980.06
2023-04-04T11:39:30.458Z,101967.69
2023-04-04T11:42:04.537Z,101965.16
2023-04-04T11:44:33.612Z,101959.84
2023-04-04T11:47:05.218Z,101959.97
2023-04-04T11:49:37.122Z,101951.03
2023-04-04T11:52:06.536Z,101956.50
2023-04-04T11:54:34.877Z,101955.19
2023-04-04T11:57:04.363Z,101954.22
2023-04-04T11:59:32.476Z,101945.00
2023-04-04T12:02:02.856Z,101944.13
2023-04-04T12:04:30.765Z,101944.34
2023-04-04T12:06:58.600Z,101954.63
2023-04-04T12:09:28.339Z,101940.50
2023-04-04T12:11:57.008Z,101940.47
2023-04-04T12:14:27.187Z,101944.75
2023-04-04T12:16:56.622Z,101943.88
2023-04-04T12:19:25.000Z,101941.63
2023-04-04T12:21:53.948Z,101938.25
2023-04-04T12:24:22.070Z,101928.47
2023-04-04T12:26:51.622Z,101933.44
2023-04-04T12:29:23.227Z,101934.25
2023-04-04T12:31:53.804Z,101931.66
2023-04-04T12:34:24.316Z,101925.63
2023-04-04T12:36:54.066Z,101930.59
2023-04-04T12:39:23.553Z,101928.53
2023-04-04T12:41:57.350Z,101922.31
2023-04-04T12:44:30.768Z,101915.53
2023-04-04T12:47:01.306Z,101911.66
2023-04-04T12:49:31.266Z,101921.22
2023-04-04T12:52:03.805Z,101918.53
2023-04-04T12:54:34.309Z,101914.41
2023-04-04T12:57:05.678Z,101911.94
2023-04-04T12:59:34.828Z,101900.94
2023-04-04T13:02:08.776Z,101903.81
2023-04-04T13:04:37.827Z,101912.06
2023-04-04T13:07:05.855Z,101908.50
2023-04-04T13:09:35.747Z,101904.44
2023-04-04T13:12:08.498Z,101908.41
2023-04-04T13:15:01.279Z,101902.34
2023-04-04T13:17:43.420Z,101903.91
2023-04-04T13:20:11.951Z,101902.50
2023-04-04T13:22:40.401Z,101904.44
2023-04-04T13:25:10.198Z,101898.81
2023-04-04T13:27:38.917Z,101895.09
2023-04-04T13:30:11.006Z,101894.25
2023-04-04T13:32:39.299Z,101886.69
2023-04-04T13:35:09.651Z,101884.88
2023-04-04T13:37:37.326Z,101881.59
2023-04-04T13:40:05.864Z,101882.34
2023-04-04T13:42:34.033Z,101888.59
2023-04-04T13:45:01.745Z,101882.06
2023-04-04T13:47:29.537Z,101874.91
2023-04-04T13:49:57.320Z,101887.97
2023-04-04T13:52:26.580Z,101886.06
2023-04-04T13:54:54.275Z,101884.28
2023-04-04T13:57:22.205Z,101882.69
2023-04-04T13:59:50.126Z,101886.53
2023-04-04T14:02:17.910Z,101879.09
2023-04-04T14:04:45.663Z,101874.25
2023-04-04T14:07:13.402Z,101876.44
2023-04-04T14:09:42.757Z,101874.78
2023-04-04T14:12:10.472Z,101867.69
2023-04-04T14:14:38.317Z,101862.66
2023-04-04T14:17:06.360Z,101857.97
2023-04-04T14:19:34.091Z,101860.53
2023-04-04T14:22:02.206Z,101856.06
2023-04-04T14:24:29.975Z,101861.53
2023-04-04T14:26:59.070Z,101866.19
2023-04-04T14:29:26.830Z,101875.50
2023-04-04T14:31:55.672Z,101864.78
2023-04-04T14:34:26.509Z,101860.94
2023-04-04T14:36:54.366Z,101859.69
2023-04-04T14:39:22.105Z,101854.16
2023-04-04T14:41:49.807Z,101856.22
2023-04-04T14:44:20.543Z,101851.16
2023-04-04T14:46:48.327Z,101860.66
2023-04-04T14:49:16.402Z,101850.31
2023-04-04T14:51:44.148Z,101840.53
2023-04-04T14:54:11.902Z,101850.09
2023-04-04T14:56:39.631Z,101837.16
2023-04-04T14:59:08.148Z,101839.16
2023-04-04T15:01:37.365Z,101844.88
2023-04-04T15:04:07.089Z,101840.66
2023-04-04T15:06:37.820Z,101838.47
2023-04-04T15:09:06.702Z,101839.19
2023-04-04T15:11:35.344Z,101839.50
2023-04-04T15:14:03.149Z,101837.16
2023-04-04T15:16:33.113Z,101828.41
2023-04-04T15:19:02.565Z,101831.31
2023-04-04T15:21:31.617Z,101836.97
2023-04-04T15:23:59.337Z,101828.34
2023-04-04T15:26:27.054Z,101820.22
2023-04-04T15:28:54.888Z,101825.66
2023-04-04T15:31:22.941Z,101819.88
2023-04-04T15:33:50.686Z,101823.78
2023-04-04T15:36:20.040Z,101826.25
2023-04-04T15:38:47.768Z,101813.03
2023-04-04T15:41:15.519Z,101823.56
2023-04-04T15:43:43.317Z,101824.38
2023-04-04T15:46:11.161Z,101817.88
2023-04-04T15:48:38.918Z,101823.00
2023-04-04T15:51:07.231Z,101827.91
2023-04-04T15:53:36.735Z,101825.38
2023-04-04T15:56:04.474Z,101814.91
2023-04-04T15:58:32.236Z,101803.31
2023-04-04T16:00:59.987Z,101811.75
2023-04-04T16:03:27.948Z,101804.84
2023-04-04T16:05:55.826Z,101806.19
2023-04-04T16:08:23.623Z,101793.97
2023-04-04T16:10:52.855Z,101788.50
2023-04-04T16:13:20.619Z,101790.66
2023-04-04T16:15:48.365Z,101788.31
2023-04-04T16:18:16.064Z,101779.00
2023-04-04T16:20:43.852Z,101779.81
2023-04-04T16:23:11.600Z,101783.84
2023-04-04T16:25:39.247Z,101787.72
2023-04-04T16:28:08.433Z,101785.59
2023-04-04T16:30:36.491Z,101779.81
2023-04-04T16:33:04.469Z,101784.66
2023-04-04T16:35:32.863Z,101779.75
2023-04-04T16:38:00.616Z,101776.22
2023-04-04T16:40:28.312Z,101773.53
2023-04-04T16:42:56.205Z,101770.78
2023-04-04T16:45:25.528Z,101774.50
2023-04-04T16:47:53.309Z,101773.06
2023-04-04T16:50:21.314Z,101772.13
2023-04-04T16:52:49.088Z,101765.81
2023-04-04T16:55:16.864Z,101781.72
2023-04-04T16:57:44.567Z,101775.13
2023-04-04T17:00:14.337Z,101778.75
2023-04-04T17:02:45.479Z,101779.81
2023-04-04T17:05:13.584Z,101770.47
2023-04-04T17:07:41.781Z,101765.25
2023-04-04T17:10:10.756Z,101764.16
2023-04-04T17:12:39.317Z,101769.47
2023-04-04T17:15:07.871Z,101770.56
2023-04-04T17:17:35.791Z,101772.00
2023-04-04T17:20:05.541Z,101779.06
2023-04-04T17:22:33.342Z,101769.59
2023-04-04T17:25:01.075Z,101772.59
2023-04-04T17:27:28.749Z,101776.69
2023-04-04T17:29:56.466Z,101770.44
2023-04-04T17:32:24.171Z,101767.16
2023-04-04T17:34:51.900Z,101768.91
2023-04-04T17:37:21.037Z,101769.91
2023-04-04T17:39:48.798Z,101768.66
2023-04-04T17:42:16.759Z,101769.34
2023-04-04T17:44:44.471Z,101772.84
2023-04-04T17:47:12.731Z,101768.41
2023-04-04T17:49:40.474Z,101774.84
2023-04-04T17:52:08.810Z,101767.75
2023-04-04T17:54:38.377Z,101760.56
2023-04-04T17:57:07.228Z,101769.22
2023-04-04T17:59:35.025Z,101774.38
2023-04-04T18:02:03.096Z,101779.53
2023-04-04T18:04:30.832Z,101779.28
2023-04-04T18:06:59.160Z,101777.28
2023-04-04T18:09:28.919Z,101782.56
2023-04-04T18:11:58.212Z,101787.88
2023-04-04T18:14:26.308Z,101785.94
2023-04-04T18:16:54.163Z,101788.66
2023-04-04T18:19:21.850Z,101783.22
2023-04-04T18:21:51.249Z,101780.75
2023-04-04T18:24:19.063Z,101781.88
2023-04-04T18:26:46.776Z,101779.03
2023-04-04T18:29:16.059Z,101781.97
2023-04-04T18:31:43.810Z,101784.00
2023-04-04T18:34:15.067Z,101778.78
2023-04-04T18:36:42.831Z,101785.84
2023-04-04T18:39:11.102Z,101790.53
2023-04-04T18:41:39.016Z,101791.78
2023-04-04T18:44:07.402Z,101788.06
2023-04-04T18:46:38.170Z,101786.97
2023-04-04T18:49:06.084Z,101793.97
2023-04-04T18:51:34.372Z,101791.78
2023-04-04T18:54:02.134Z,101796.94
2023-04-04T18:56:29.856Z,101789.66
2023-04-04T18:58:57.595Z,101795.59
2023-04-04T19:01:25.488Z,101797.88
2023-04-04T19:03:55.424Z,101804.03
2023-04-04T19:06:27.361Z,101795.41
2023-04-04T19:08:58.478Z,101799.44
2023-04-04T19:11:26.277Z,101800.50
2023-04-04T19:13:54.009Z,101804.16
2023-04-04T19:16:22.521Z,101798.44
2023-04-04T19:18:50.255Z,101800.31
2023-04-04T19:21:19.417Z,101800.47
2023-04-04T19:23:48.311Z,101804.16
2023-04-04T19:26:18.020Z,101809.00
2023-04-04T19:28:47.215Z,101808.19
2023-04-04T19:31:21.633Z,101820.84
2023-04-04T19:33:49.817Z,101809.97
2023-04-04T19:36:18.918Z,101825.47
2023-04-04T19:38:48.372Z,101831.31
2023-04-04T19:41:33.800Z,101827.78
2023-04-04T19:44:01.826Z,101833.38
2023-04-04T19:46:31.698Z,101848.22
2023-04-04T19:49:00.107Z,101844.84
2023-04-04T19:51:43.565Z,101853.50
2023-04-04T19:54:17.724Z,101851.59
2023-04-04T19:56:47.550Z,101862.16
2023-04-04T19:59:53.008Z,101859.69
2023-04-04T20:02:53.891Z,101858.84
2023-04-04T20:06:03.271Z,101878.53
2023-04-04T20:08:39.002Z,101875.13
2023-04-04T20:11:07.772Z,101880.47
2023-04-04T20:13:37.240Z,101879.34
2023-04-04T20:16:10.976Z,101875.97
2023-04-04T20:18:40.051Z,101886.63
2023-04-04T20:21:12.667Z,101883.56
2023-04-04T20:23:52.499Z,101886.44
2023-04-04T20:26:42.660Z,101891.06
2023-04-04T20:29:12.415Z,101889.63
2023-04-04T20:31:43.951Z,101899.69
2023-04-04T20:34:31.182Z,101892.16
2023-04-04T20:36:58.949Z,101901.38
2023-04-04T20:39:44.903Z,101899.09
2023-04-04T20:42:40.169Z,101897.16
2023-04-04T20:45:29.418Z,101902.78
2023-04-04T20:47:57.892Z,101899.53
2023-04-04T20:50:46.206Z,101893.88
2023-04-04T20:53:21.156Z,101894.06
2023-04-04T20:55:51.446Z,101893.97
2023-04-04T20:58:28.459Z,101891.84
2023-04-04T21:00:57.990Z,101885.09
2023-04-04T21:03:36.051Z,101886.47
2023-04-04T21:06:11.487Z,101888.78
2023-04-04T21:08:49.385Z,101890.69
2023-04-04T21:11:25.073Z,101890.44
2023-04-04T21:13:52.852Z,101883.38
2023-04-04T21:16:24.511Z,101883.16
2023-04-04T21:18:57.907Z,101894.16
2023-04-04T21:21:26.554Z,101893.09
2023-04-04T21:23:56.145Z,101891.75
2023-04-04T21:26:30.269Z,101889.91
2023-04-04T21:28:59.272Z,101893.28
2023-04-04T21:31:30.693Z,101900.41
2023-04-04T21:33:59.436Z,101891.91
2023-04-04T21:36:29.658Z,101895.28
2023-04-04T21:38:59.329Z,101887.69
2023-04-04T21:41:29.912Z,101892.75
2023-04-04T21:43:59.503Z,101896.94
2023-04-04T21:46:28.748Z,101899.41
2023-04-04T21:48:57.263Z,101893.75
2023-04-04T21:51:24.977Z,101897.22
2023-04-04T21:53:52.740Z,101888.16
2023-04-04T21:56:21.176Z,101891.56
2023-04-04T21:58:50.995Z,101889.00
2023-04-04T22:01:18.692Z,101886.81
2023-04-04T22:03:46.451Z,101888.22
2023-04-04T22:06:14.381Z,101885.16
2023-04-04T22:08:42.343Z,101884.56
2023-04-04T22:11:13.439Z,101889.69
2023-04-04T22:13:46.800Z,101881.31
2023-04-04T22:16:17.590Z,101886.81
2023-04-04T22:18:47.716Z,101885.97
2023-04-04T22:21:16.719Z,101884.69
2023-04-04T22:23:44.759Z,101887.13
2023-04-04T22:26:15.242Z,101885.66
2023-04-04T22:28:45.682Z,101883.28
2023-04-04T22:31:13.802Z,101887.31
2023-04-04T22:33:43.456Z,101884.44
2023-04-04T22:36:11.309Z,101881.53
2023-04-04T22:38:39.462Z,101880.28
2023-04-04T22:41:07.390Z,101875.06
2023-04-04T22:43:35.330Z,101878.44
2023-04-04T22:46:03.095Z,101869.22
2023-04-04T22:48:30.917Z,101873.22
2023-04-04T22:51:02.754Z,101875.94
2023-04-04T22:53:30.529Z,101874.28
2023-04-04T22:56:00.649Z,101872.75
2023-04-04T22:58:28.395Z,101881.00
2023-04-04T23:00:56.141Z,101882.59
2023-04-04T23:03:23.858Z,101876.84
2023-04-04T23:05:51.615Z,101887.19
2023-04-04T23:08:20.755Z,101875.00
2023-04-04T23:10:48.436Z,101874.59
2023-04-04T23:13:16.215Z,101878.94
2023-04-04T23:15:45.038Z,101878.78
2023-04-04T23:18:13.470Z,101866.78
2023-04-04T23:20:41.902Z,101872.41
2023-04-04T23:23:09.833Z,101871.63
2023-04-04T23:25:38.899Z,101877.25
2023-04-04T23:28:06.581Z,101869.91
2023-04-04T23:30:34.322Z,101865.75
2023-04-04T23:33:02.099Z,101860.94
2023-04-04T23:35:29.886Z,101876.78
2023-04-04T23:37:57.577Z,101874.69
2023-04-04T23:40:25.541Z,101869.66
2023-04-04T23:42:54.594Z,101872.78
2023-04-04T23:47:50.189Z,101864.63
2023-04-04T23:50:19.100Z,101862.00
2023-04-04T23:52:46.869Z,101859.81
2023-04-04T23:55:16.964Z,101866.72
2023-04-04T23:57:44.985Z,101866.72
